sensor_id;sensor_type;location;lat;lon;timestamp;P1;durP1;ratioP1;P2;durP2;ratioP2
14294;SDS011;7231;59.370;18.016;2022-08-19T00:01:52;27.70;;;17.40;;
14294;SDS011;7231;59.370;18.016;2022-08-19T00:04:22;21.60;;;16.67;;
14294;SDS011;7231;59.370;18.016;2022-08-19T00:06:55;28.30;;;17.35;;
14294;SDS011;7231;59.370;18.016;2022-08-19T00:09:23;25.48;;;18.92;;
14294;SDS011;7231;59.370;18.016;2022-08-19T00:11:52;33.30;;;20.30;;
14294;SDS011;7231;59.370;18.016;2022-08-19T00:14:23;25.90;;;19.50;;
14294;SDS011;7231;59.370;18.016;2022-08-19T00:16:54;26.90;;;19.50;;
14294;SDS011;7231;59.370;18.016;2022-08-19T00:19:23;26.77;;;19.77;;
14294;SDS011;7231;59.370;18.016;2022-08-19T00:21:54;28.63;;;19.92;;
14294;SDS011;7231;59.370;18.016;2022-08-19T00:24:22;26.20;;;19.27;;
14294;SDS011;7231;59.370;18.016;2022-08-19T00:26:51;31.52;;;21.20;;
14294;SDS011;7231;59.370;18.016;2022-08-19T00:29:20;27.05;;;20.55;;
14294;SDS011;7231;59.370;18.016;2022-08-19T00:31:48;29.17;;;20.75;;
14294;SDS011;7231;59.370;18.016;2022-08-19T00:34:21;28.75;;;20.30;;
14294;SDS011;7231;59.370;18.016;2022-08-19T00:36:50;27.90;;;20.23;;
14294;SDS011;7231;59.370;18.016;2022-08-19T00:39:18;28.33;;;19.92;;
14294;SDS011;7231;59.370;18.016;2022-08-19T00:41:46;26.58;;;20.05;;
14294;SDS011;7231;59.370;18.016;2022-08-19T00:44:16;29.00;;;21.58;;
14294;SDS011;7231;59.370;18.016;2022-08-19T00:46:53;30.30;;;21.38;;
14294;SDS011;7231;59.370;18.016;2022-08-19T00:49:28;30.92;;;22.25;;
14294;SDS011;7231;59.370;18.016;2022-08-19T00:52:01;31.08;;;21.80;;
14294;SDS011;7231;59.370;18.016;2022-08-19T00:54:32;30.63;;;20.77;;
14294;SDS011;7231;59.370;18.016;2022-08-19T00:57:01;26.45;;;20.20;;
14294;SDS011;7231;59.370;18.016;2022-08-19T00:59:32;29.27;;;21.05;;
14294;SDS011;7231;59.370;18.016;2022-08-19T01:02:22;31.10;;;21.13;;
14294;SDS011;7231;59.370;18.016;2022-08-19T01:04:52;28.00;;;20.25;;
14294;SDS011;7231;59.370;18.016;2022-08-19T01:07:20;24.70;;;19.17;;
14294;SDS011;7231;59.370;18.016;2022-08-19T01:09:49;27.17;;;20.80;;
14294;SDS011;7231;59.370;18.016;2022-08-19T01:12:17;26.25;;;20.13;;
14294;SDS011;7231;59.370;18.016;2022-08-19T01:14:46;28.83;;;20.92;;
14294;SDS011;7231;59.370;18.016;2022-08-19T01:17:16;28.58;;;21.08;;
14294;SDS011;7231;59.370;18.016;2022-08-19T01:19:44;27.15;;;19.95;;
14294;SDS011;7231;59.370;18.016;2022-08-19T01:22:16;27.23;;;20.98;;
14294;SDS011;7231;59.370;18.016;2022-08-19T01:24:59;25.75;;;21.48;;
14294;SDS011;7231;59.370;18.016;2022-08-19T01:27:36;26.80;;;20.88;;
14294;SDS011;7231;59.370;18.016;2022-08-19T01:30:10;26.50;;;21.58;;
14294;SDS011;7231;59.370;18.016;2022-08-19T01:32:40;29.98;;;21.60;;
14294;SDS011;7231;59.370;18.016;2022-08-19T01:35:10;26.25;;;20.85;;
14294;SDS011;7231;59.370;18.016;2022-08-19T01:37:45;26.83;;;20.92;;
14294;SDS011;7231;59.370;18.016;2022-08-19T01:40:15;25.83;;;20.00;;
14294;SDS011;7231;59.370;18.016;2022-08-19T01:42:45;24.45;;;20.27;;
14294;SDS011;7231;59.370;18.016;2022-08-19T01:45:13;23.80;;;20.00;;
14294;SDS011;7231;59.370;18.016;2022-08-19T01:47:42;24.73;;;19.65;;
14294;SDS011;7231;59.370;18.016;2022-08-19T01:50:26;25.25;;;20.90;;
14294;SDS011;7231;59.370;18.016;2022-08-19T01:52:56;27.05;;;22.98;;
14294;SDS011;7231;59.370;18.016;2022-08-19T01:55:33;26.08;;;21.77;;
14294;SDS011;7231;59.370;18.016;2022-08-19T01:58:07;28.77;;;22.10;;
14294;SDS011;7231;59.370;18.016;2022-08-19T02:00:38;25.77;;;21.25;;
14294;SDS011;7231;59.370;18.016;2022-08-19T02:03:07;24.80;;;21.65;;
14294;SDS011;7231;59.370;18.016;2022-08-19T02:05:38;25.35;;;22.13;;
14294;SDS011;7231;59.370;18.016;2022-08-19T02:08:08;27.70;;;21.90;;
14294;SDS011;7231;59.370;18.016;2022-08-19T02:10:38;27.15;;;22.52;;
14294;SDS011;7231;59.370;18.016;2022-08-19T02:13:08;24.38;;;21.35;;
14294;SDS011;7231;59.370;18.016;2022-08-19T02:15:36;24.17;;;20.90;;
14294;SDS011;7231;59.370;18.016;2022-08-19T02:18:05;25.98;;;22.55;;
14294;SDS011;7231;59.370;18.016;2022-08-19T02:20:34;26.70;;;21.52;;
14294;SDS011;7231;59.370;18.016;2022-08-19T02:23:02;25.20;;;21.25;;
14294;SDS011;7231;59.370;18.016;2022-08-19T02:25:40;26.00;;;21.75;;
14294;SDS011;7231;59.370;18.016;2022-08-19T02:28:09;27.30;;;21.70;;
14294;SDS011;7231;59.370;18.016;2022-08-19T02:30:43;23.80;;;20.98;;
14294;SDS011;7231;59.370;18.016;2022-08-19T02:33:11;28.92;;;22.13;;
14294;SDS011;7231;59.370;18.016;2022-08-19T02:35:40;25.33;;;21.65;;
14294;SDS011;7231;59.370;18.016;2022-08-19T02:38:09;28.25;;;22.85;;
14294;SDS011;7231;59.370;18.016;2022-08-19T02:40:58;25.80;;;20.50;;
14294;SDS011;7231;59.370;18.016;2022-08-19T02:43:31;24.13;;;20.92;;
14294;SDS011;7231;59.370;18.016;2022-08-19T02:46:10;24.83;;;21.63;;
14294;SDS011;7231;59.370;18.016;2022-08-19T02:48:39;26.58;;;21.25;;
14294;SDS011;7231;59.370;18.016;2022-08-19T02:51:08;25.30;;;21.67;;
14294;SDS011;7231;59.370;18.016;2022-08-19T02:53:36;27.25;;;20.77;;
14294;SDS011;7231;59.370;18.016;2022-08-19T02:56:07;26.45;;;21.50;;
14294;SDS011;7231;59.370;18.016;2022-08-19T02:58:35;27.55;;;22.40;;
14294;SDS011;7231;59.370;18.016;2022-08-19T03:01:03;29.98;;;21.85;;
14294;SDS011;7231;59.370;18.016;2022-08-19T03:03:32;28.33;;;22.83;;
14294;SDS011;7231;59.370;18.016;2022-08-19T03:06:05;25.95;;;21.70;;
14294;SDS011;7231;59.370;18.016;2022-08-19T03:08:35;27.52;;;23.02;;
14294;SDS011;7231;59.370;18.016;2022-08-19T03:11:04;25.92;;;21.70;;
14294;SDS011;7231;59.370;18.016;2022-08-19T03:13:35;28.58;;;22.70;;
14294;SDS011;7231;59.370;18.016;2022-08-19T03:16:04;25.15;;;21.52;;
14294;SDS011;7231;59.370;18.016;2022-08-19T03:18:32;26.95;;;21.55;;
14294;SDS011;7231;59.370;18.016;2022-08-19T03:21:00;31.67;;;22.77;;
14294;SDS011;7231;59.370;18.016;2022-08-19T03:23:28;26.88;;;21.73;;
14294;SDS011;7231;59.370;18.016;2022-08-19T03:25:56;28.38;;;21.52;;
14294;SDS011;7231;59.370;18.016;2022-08-19T03:28:43;25.85;;;21.67;;
14294;SDS011;7231;59.370;18.016;2022-08-19T03:31:17;24.65;;;21.52;;
14294;SDS011;7231;59.370;18.016;2022-08-19T03:34:07;28.23;;;21.55;;
14294;SDS011;7231;59.370;18.016;2022-08-19T03:36:39;29.67;;;24.08;;
14294;SDS011;7231;59.370;18.016;2022-08-19T03:39:07;27.08;;;22.15;;
14294;SDS011;7231;59.370;18.016;2022-08-19T03:41:39;26.23;;;22.15;;
14294;SDS011;7231;59.370;18.016;2022-08-19T03:44:12;28.02;;;21.88;;
14294;SDS011;7231;59.370;18.016;2022-08-19T03:46:44;31.17;;;23.65;;
14294;SDS011;7231;59.370;18.016;2022-08-19T03:49:13;28.00;;;23.10;;
14294;SDS011;7231;59.370;18.016;2022-08-19T03:51:44;25.20;;;21.15;;
14294;SDS011;7231;59.370;18.016;2022-08-19T03:54:14;27.45;;;21.83;;
14294;SDS011;7231;59.370;18.016;2022-08-19T03:56:44;24.20;;;21.17;;
14294;SDS011;7231;59.370;18.016;2022-08-19T03:59:17;27.40;;;21.35;;
14294;SDS011;7231;59.370;18.016;2022-08-19T04:01:47;27.70;;;22.85;;
14294;SDS011;7231;59.370;18.016;2022-08-19T04:04:15;26.23;;;21.50;;
14294;SDS011;7231;59.370;18.016;2022-08-19T04:06:45;29.42;;;20.98;;
14294;SDS011;7231;59.370;18.016;2022-08-19T04:09:13;23.35;;;20.75;;
14294;SDS011;7231;59.370;18.016;2022-08-19T04:11:42;24.40;;;21.70;;
14294;SDS011;7231;59.370;18.016;2022-08-19T04:14:13;24.70;;;20.92;;
14294;SDS011;7231;59.370;18.016;2022-08-19T04:16:46;27.33;;;22.30;;
14294;SDS011;7231;59.370;18.016;2022-08-19T04:19:16;24.83;;;22.02;;
14294;SDS011;7231;59.370;18.016;2022-08-19T04:21:47;32.90;;;25.02;;
14294;SDS011;7231;59.370;18.016;2022-08-19T04:24:19;25.70;;;21.73;;
14294;SDS011;7231;59.370;18.016;2022-08-19T04:26:48;28.05;;;22.20;;
14294;SDS011;7231;59.370;18.016;2022-08-19T04:29:19;26.58;;;22.42;;
14294;SDS011;7231;59.370;18.016;2022-08-19T04:31:52;30.27;;;21.20;;
14294;SDS011;7231;59.370;18.016;2022-08-19T04:34:22;27.17;;;23.00;;
14294;SDS011;7231;59.370;18.016;2022-08-19T04:36:53;27.67;;;22.88;;
14294;SDS011;7231;59.370;18.016;2022-08-19T04:39:24;28.30;;;23.52;;
14294;SDS011;7231;59.370;18.016;2022-08-19T04:42:14;26.77;;;21.23;;
14294;SDS011;7231;59.370;18.016;2022-08-19T04:45:03;27.13;;;22.17;;
14294;SDS011;7231;59.370;18.016;2022-08-19T04:47:37;27.95;;;22.75;;
14294;SDS011;7231;59.370;18.016;2022-08-19T04:50:23;26.38;;;22.20;;
14294;SDS011;7231;59.370;18.016;2022-08-19T04:52:51;25.75;;;21.77;;
14294;SDS011;7231;59.370;18.016;2022-08-19T04:55:20;25.50;;;21.83;;
14294;SDS011;7231;59.370;18.016;2022-08-19T04:57:48;27.75;;;21.58;;
14294;SDS011;7231;59.370;18.016;2022-08-19T05:00:18;28.40;;;21.17;;
14294;SDS011;7231;59.370;18.016;2022-08-19T05:02:46;27.92;;;22.38;;
14294;SDS011;7231;59.370;18.016;2022-08-19T05:05:15;27.65;;;22.42;;
14294;SDS011;7231;59.370;18.016;2022-08-19T05:07:43;28.67;;;21.65;;
14294;SDS011;7231;59.370;18.016;2022-08-19T05:10:12;28.85;;;21.83;;
14294;SDS011;7231;59.370;18.016;2022-08-19T05:12:40;30.63;;;22.75;;
14294;SDS011;7231;59.370;18.016;2022-08-19T05:15:08;27.13;;;21.30;;
14294;SDS011;7231;59.370;18.016;2022-08-19T05:17:38;27.90;;;21.83;;
14294;SDS011;7231;59.370;18.016;2022-08-19T05:20:27;28.63;;;21.42;;
14294;SDS011;7231;59.370;18.016;2022-08-19T05:23:13;24.60;;;21.27;;
14294;SDS011;7231;59.370;18.016;2022-08-19T05:25:47;26.15;;;20.90;;
14294;SDS011;7231;59.370;18.016;2022-08-19T05:28:16;24.55;;;19.73;;
14294;SDS011;7231;59.370;18.016;2022-08-19T05:30:44;27.88;;;21.98;;
14294;SDS011;7231;59.370;18.016;2022-08-19T05:33:14;26.73;;;21.70;;
14294;SDS011;7231;59.370;18.016;2022-08-19T05:35:42;24.08;;;20.75;;
14294;SDS011;7231;59.370;18.016;2022-08-19T05:38:12;24.80;;;22.13;;
14294;SDS011;7231;59.370;18.016;2022-08-19T05:40:41;28.23;;;21.42;;
14294;SDS011;7231;59.370;18.016;2022-08-19T05:43:12;24.00;;;21.38;;
14294;SDS011;7231;59.370;18.016;2022-08-19T05:45:42;27.98;;;22.42;;
14294;SDS011;7231;59.370;18.016;2022-08-19T05:48:10;22.08;;;18.92;;
14294;SDS011;7231;59.370;18.016;2022-08-19T05:50:41;21.27;;;18.85;;
14294;SDS011;7231;59.370;18.016;2022-08-19T05:53:11;21.70;;;18.23;;
14294;SDS011;7231;59.370;18.016;2022-08-19T05:55:42;23.17;;;18.08;;
14294;SDS011;7231;59.370;18.016;2022-08-19T05:58:10;22.75;;;17.30;;
14294;SDS011;7231;59.370;18.016;2022-08-19T06:00:39;17.58;;;15.73;;
14294;SDS011;7231;59.370;18.016;2022-08-19T06:03:07;18.17;;;16.25;;
14294;SDS011;7231;59.370;18.016;2022-08-19T06:05:38;23.55;;;16.92;;
14294;SDS011;7231;59.370;18.016;2022-08-19T06:08:17;20.40;;;17.25;;
14294;SDS011;7231;59.370;18.016;2022-08-19T06:10:45;20.25;;;16.48;;
14294;SDS011;7231;59.370;18.016;2022-08-19T06:13:13;18.70;;;15.25;;
14294;SDS011;7231;59.370;18.016;2022-08-19T06:15:41;19.38;;;15.75;;
14294;SDS011;7231;59.370;18.016;2022-08-19T06:18:10;18.95;;;15.60;;
14294;SDS011;7231;59.370;18.016;2022-08-19T06:20:39;17.25;;;15.52;;
14294;SDS011;7231;59.370;18.016;2022-08-19T06:23:22;20.27;;;15.15;;
14294;SDS011;7231;59.370;18.016;2022-08-19T06:25:52;16.52;;;14.77;;
14294;SDS011;7231;59.370;18.016;2022-08-19T06:28:19;18.30;;;14.02;;
14294;SDS011;7231;59.370;18.016;2022-08-19T06:30:50;17.20;;;14.10;;
14294;SDS011;7231;59.370;18.016;2022-08-19T06:33:18;14.02;;;12.35;;
14294;SDS011;7231;59.370;18.016;2022-08-19T06:35:46;15.10;;;13.43;;
14294;SDS011;7231;59.370;18.016;2022-08-19T06:38:14;16.15;;;12.98;;
14294;SDS011;7231;59.370;18.016;2022-08-19T06:40:43;15.45;;;12.82;;
14294;SDS011;7231;59.370;18.016;2022-08-19T06:43:11;17.50;;;13.98;;
14294;SDS011;7231;59.370;18.016;2022-08-19T06:45:43;15.23;;;13.40;;
14294;SDS011;7231;59.370;18.016;2022-08-19T06:48:13;15.10;;;13.27;;
14294;SDS011;7231;59.370;18.016;2022-08-19T06:50:43;16.88;;;13.48;;
14294;SDS011;7231;59.370;18.016;2022-08-19T06:53:11;15.05;;;12.95;;
14294;SDS011;7231;59.370;18.016;2022-08-19T06:55:40;14.40;;;12.90;;
14294;SDS011;7231;59.370;18.016;2022-08-19T06:58:09;17.27;;;13.50;;
14294;SDS011;7231;59.370;18.016;2022-08-19T07:00:37;14.10;;;12.63;;
14294;SDS011;7231;59.370;18.016;2022-08-19T07:03:06;14.82;;;13.35;;
14294;SDS011;7231;59.370;18.016;2022-08-19T07:05:38;12.95;;;11.25;;
14294;SDS011;7231;59.370;18.016;2022-08-19T07:08:11;18.60;;;11.30;;
14294;SDS011;7231;59.370;18.016;2022-08-19T07:10:42;13.48;;;10.90;;
14294;SDS011;7231;59.370;18.016;2022-08-19T07:13:12;16.98;;;10.82;;
14294;SDS011;7231;59.370;18.016;2022-08-19T07:15:40;13.95;;;10.43;;
14294;SDS011;7231;59.370;18.016;2022-08-19T07:18:08;14.23;;;10.10;;
14294;SDS011;7231;59.370;18.016;2022-08-19T07:20:37;14.48;;;10.25;;
14294;SDS011;7231;59.370;18.016;2022-08-19T07:23:07;13.13;;;9.32;;
14294;SDS011;7231;59.370;18.016;2022-08-19T07:25:42;12.38;;;8.90;;
14294;SDS011;7231;59.370;18.016;2022-08-19T07:28:20;12.90;;;8.98;;
14294;SDS011;7231;59.370;18.016;2022-08-19T07:30:50;12.25;;;8.80;;
14294;SDS011;7231;59.370;18.016;2022-08-19T07:33:18;13.90;;;8.50;;
14294;SDS011;7231;59.370;18.016;2022-08-19T07:35:47;10.15;;;7.75;;
14294;SDS011;7231;59.370;18.016;2022-08-19T07:38:16;10.73;;;7.60;;
14294;SDS011;7231;59.370;18.016;2022-08-19T07:40:44;12.35;;;8.40;;
14294;SDS011;7231;59.370;18.016;2022-08-19T07:43:14;8.57;;;7.75;;
14294;SDS011;7231;59.370;18.016;2022-08-19T07:45:44;12.45;;;7.78;;
14294;SDS011;7231;59.370;18.016;2022-08-19T07:48:13;12.82;;;8.23;;
14294;SDS011;7231;59.370;18.016;2022-08-19T07:50:42;12.73;;;7.55;;
14294;SDS011;7231;59.370;18.016;2022-08-19T07:53:10;11.18;;;7.18;;
14294;SDS011;7231;59.370;18.016;2022-08-19T07:55:39;14.10;;;7.20;;
14294;SDS011;7231;59.370;18.016;2022-08-19T07:58:09;11.85;;;7.07;;
14294;SDS011;7231;59.370;18.016;2022-08-19T08:00:38;14.50;;;6.60;;
14294;SDS011;7231;59.370;18.016;2022-08-19T08:03:09;11.70;;;5.78;;
14294;SDS011;7231;59.370;18.016;2022-08-19T08:05:37;12.32;;;6.40;;
14294;SDS011;7231;59.370;18.016;2022-08-19T08:08:23;9.73;;;5.63;;
14294;SDS011;7231;59.370;18.016;2022-08-19T08:11:14;11.55;;;6.25;;
14294;SDS011;7231;59.370;18.016;2022-08-19T08:13:45;10.85;;;5.53;;
14294;SDS011;7231;59.370;18.016;2022-08-19T08:16:26;8.02;;;5.72;;
14294;SDS011;7231;59.370;18.016;2022-08-19T08:18:58;9.88;;;5.65;;
14294;SDS011;7231;59.370;18.016;2022-08-19T08:21:26;8.70;;;5.57;;
14294;SDS011;7231;59.370;18.016;2022-08-19T08:23:54;11.82;;;5.60;;
14294;SDS011;7231;59.370;18.016;2022-08-19T08:26:22;13.45;;;5.70;;
14294;SDS011;7231;59.370;18.016;2022-08-19T08:28:53;10.68;;;5.60;;
14294;SDS011;7231;59.370;18.016;2022-08-19T08:31:22;12.13;;;5.07;;
14294;SDS011;7231;59.370;18.016;2022-08-19T08:33:50;12.27;;;4.88;;
14294;SDS011;7231;59.370;18.016;2022-08-19T08:36:20;8.20;;;4.70;;
14294;SDS011;7231;59.370;18.016;2022-08-19T08:38:48;7.35;;;4.30;;
14294;SDS011;7231;59.370;18.016;2022-08-19T08:41:26;8.63;;;5.03;;
14294;SDS011;7231;59.370;18.016;2022-08-19T08:43:58;9.25;;;4.55;;
14294;SDS011;7231;59.370;18.016;2022-08-19T08:46:29;8.90;;;4.82;;
14294;SDS011;7231;59.370;18.016;2022-08-19T08:49:02;9.43;;;4.60;;
14294;SDS011;7231;59.370;18.016;2022-08-19T08:51:48;8.82;;;4.78;;
14294;SDS011;7231;59.370;18.016;2022-08-19T08:54:26;8.90;;;4.32;;
14294;SDS011;7231;59.370;18.016;2022-08-19T08:57:00;13.07;;;4.65;;
14294;SDS011;7231;59.370;18.016;2022-08-19T08:59:30;10.52;;;4.50;;
14294;SDS011;7231;59.370;18.016;2022-08-19T09:02:02;8.98;;;5.18;;
14294;SDS011;7231;59.370;18.016;2022-08-19T09:04:29;12.15;;;4.97;;
14294;SDS011;7231;59.370;18.016;2022-08-19T09:07:02;10.40;;;5.22;;
14294;SDS011;7231;59.370;18.016;2022-08-19T09:10:02;7.35;;;4.50;;
14294;SDS011;7231;59.370;18.016;2022-08-19T09:12:39;8.90;;;4.07;;
14294;SDS011;7231;59.370;18.016;2022-08-19T09:15:25;13.65;;;4.78;;
14294;SDS011;7231;59.370;18.016;2022-08-19T09:17:59;14.35;;;5.03;;
14294;SDS011;7231;59.370;18.016;2022-08-19T09:20:32;9.25;;;4.78;;
14294;SDS011;7231;59.370;18.016;2022-08-19T09:23:02;9.85;;;5.30;;
14294;SDS011;7231;59.370;18.016;2022-08-19T09:25:30;10.60;;;5.22;;
14294;SDS011;7231;59.370;18.016;2022-08-19T09:28:01;10.75;;;5.60;;
14294;SDS011;7231;59.370;18.016;2022-08-19T09:30:41;8.55;;;4.13;;
14294;SDS011;7231;59.370;18.016;2022-08-19T09:33:09;7.22;;;5.22;;
14294;SDS011;7231;59.370;18.016;2022-08-19T09:35:37;12.82;;;4.65;;
14294;SDS011;7231;59.370;18.016;2022-08-19T09:38:20;13.25;;;4.70;;
14294;SDS011;7231;59.370;18.016;2022-08-19T09:40:48;7.97;;;4.70;;
14294;SDS011;7231;59.370;18.016;2022-08-19T09:43:16;7.40;;;4.10;;
14294;SDS011;7231;59.370;18.016;2022-08-19T09:45:59;9.88;;;4.72;;
14294;SDS011;7231;59.370;18.016;2022-08-19T09:48:27;9.75;;;4.75;;
14294;SDS011;7231;59.370;18.016;2022-08-19T09:51:01;6.20;;;4.28;;
14294;SDS011;7231;59.370;18.016;2022-08-19T09:53:32;9.65;;;4.10;;
14294;SDS011;7231;59.370;18.016;2022-08-19T09:56:02;11.13;;;4.60;;
14294;SDS011;7231;59.370;18.016;2022-08-19T09:58:33;9.55;;;4.22;;
14294;SDS011;7231;59.370;18.016;2022-08-19T10:01:02;10.65;;;4.50;;
14294;SDS011;7231;59.370;18.016;2022-08-19T10:03:32;10.43;;;4.43;;
14294;SDS011;7231;59.370;18.016;2022-08-19T10:06:03;7.22;;;4.68;;
14294;SDS011;7231;59.370;18.016;2022-08-19T10:08:44;6.97;;;4.55;;
14294;SDS011;7231;59.370;18.016;2022-08-19T10:11:16;7.90;;;4.50;;
14294;SDS011;7231;59.370;18.016;2022-08-19T10:14:00;11.40;;;5.28;;
14294;SDS011;7231;59.370;18.016;2022-08-19T10:16:28;6.93;;;4.20;;
14294;SDS011;7231;59.370;18.016;2022-08-19T10:19:02;8.13;;;4.15;;
14294;SDS011;7231;59.370;18.016;2022-08-19T10:21:31;4.90;;;4.03;;
14294;SDS011;7231;59.370;18.016;2022-08-19T10:24:03;8.57;;;4.18;;
14294;SDS011;7231;59.370;18.016;2022-08-19T10:26:35;9.30;;;4.18;;
14294;SDS011;7231;59.370;18.016;2022-08-19T10:29:08;13.43;;;4.68;;
14294;SDS011;7231;59.370;18.016;2022-08-19T10:31:36;7.72;;;4.20;;
14294;SDS011;7231;59.370;18.016;2022-08-19T10:34:24;8.23;;;4.03;;
14294;SDS011;7231;59.370;18.016;2022-08-19T10:36:54;8.82;;;4.70;;
14294;SDS011;7231;59.370;18.016;2022-08-19T10:39:28;11.45;;;3.83;;
14294;SDS011;7231;59.370;18.016;2022-08-19T10:42:06;7.28;;;4.05;;
14294;SDS011;7231;59.370;18.016;2022-08-19T10:44:37;7.55;;;4.38;;
14294;SDS011;7231;59.370;18.016;2022-08-19T10:47:05;7.35;;;4.80;;
14294;SDS011;7231;59.370;18.016;2022-08-19T10:49:50;10.25;;;4.88;;
14294;SDS011;7231;59.370;18.016;2022-08-19T10:52:37;8.07;;;4.40;;
14294;SDS011;7231;59.370;18.016;2022-08-19T10:55:17;12.02;;;4.40;;
14294;SDS011;7231;59.370;18.016;2022-08-19T10:58:09;9.63;;;4.00;;
14294;SDS011;7231;59.370;18.016;2022-08-19T11:00:41;6.75;;;4.15;;
14294;SDS011;7231;59.370;18.016;2022-08-19T11:03:10;7.13;;;4.35;;
14294;SDS011;7231;59.370;18.016;2022-08-19T11:05:38;6.85;;;4.45;;
14294;SDS011;7231;59.370;18.016;2022-08-19T11:08:07;9.05;;;4.25;;
14294;SDS011;7231;59.370;18.016;2022-08-19T11:10:50;9.27;;;4.10;;
14294;SDS011;7231;59.370;18.016;2022-08-19T11:13:20;7.32;;;4.03;;
14294;SDS011;7231;59.370;18.016;2022-08-19T11:15:55;8.88;;;4.03;;
14294;SDS011;7231;59.370;18.016;2022-08-19T11:18:29;10.07;;;4.43;;
14294;SDS011;7231;59.370;18.016;2022-08-19T11:21:04;7.65;;;4.07;;
14294;SDS011;7231;59.370;18.016;2022-08-19T11:23:33;8.13;;;4.47;;
14294;SDS011;7231;59.370;18.016;2022-08-19T11:26:02;7.18;;;4.35;;
14294;SDS011;7231;59.370;18.016;2022-08-19T11:28:31;9.35;;;4.20;;
14294;SDS011;7231;59.370;18.016;2022-08-19T11:31:00;12.13;;;5.20;;
14294;SDS011;7231;59.370;18.016;2022-08-19T11:33:30;10.30;;;4.57;;
14294;SDS011;7231;59.370;18.016;2022-08-19T11:35:59;8.43;;;4.30;;
14294;SDS011;7231;59.370;18.016;2022-08-19T11:38:28;9.43;;;4.18;;
14294;SDS011;7231;59.370;18.016;2022-08-19T11:40:57;7.20;;;4.10;;
14294;SDS011;7231;59.370;18.016;2022-08-19T11:43:27;6.95;;;4.10;;
14294;SDS011;7231;59.370;18.016;2022-08-19T11:46:03;7.28;;;4.43;;
14294;SDS011;7231;59.370;18.016;2022-08-19T11:48:33;8.77;;;4.32;;
14294;SDS011;7231;59.370;18.016;2022-08-19T11:51:03;7.97;;;3.95;;
14294;SDS011;7231;59.370;18.016;2022-08-19T11:53:33;7.10;;;4.20;;
14294;SDS011;7231;59.370;18.016;2022-08-19T11:56:02;9.05;;;4.20;;
14294;SDS011;7231;59.370;18.016;2022-08-19T11:58:33;6.25;;;4.30;;
14294;SDS011;7231;59.370;18.016;2022-08-19T12:01:04;11.32;;;4.47;;
14294;SDS011;7231;59.370;18.016;2022-08-19T12:03:34;6.47;;;4.50;;
14294;SDS011;7231;59.370;18.016;2022-08-19T12:06:03;11.05;;;4.53;;
14294;SDS011;7231;59.370;18.016;2022-08-19T12:08:32;6.90;;;4.40;;
14294;SDS011;7231;59.370;18.016;2022-08-19T12:11:00;6.75;;;4.38;;
14294;SDS011;7231;59.370;18.016;2022-08-19T12:13:28;10.73;;;4.47;;
14294;SDS011;7231;59.370;18.016;2022-08-19T12:15:58;8.68;;;4.68;;
14294;SDS011;7231;59.370;18.016;2022-08-19T12:18:26;8.63;;;4.53;;
14294;SDS011;7231;59.370;18.016;2022-08-19T12:20:55;10.10;;;4.45;;
14294;SDS011;7231;59.370;18.016;2022-08-19T12:23:23;7.65;;;4.22;;
14294;SDS011;7231;59.370;18.016;2022-08-19T12:25:51;10.85;;;4.68;;
14294;SDS011;7231;59.370;18.016;2022-08-19T12:28:19;8.68;;;4.47;;
14294;SDS011;7231;59.370;18.016;2022-08-19T12:30:48;7.70;;;4.40;;
14294;SDS011;7231;59.370;18.016;2022-08-19T12:33:19;6.47;;;4.55;;
14294;SDS011;7231;59.370;18.016;2022-08-19T12:35:50;9.90;;;4.25;;
14294;SDS011;7231;59.370;18.016;2022-08-19T12:38:19;9.35;;;3.95;;
14294;SDS011;7231;59.370;18.016;2022-08-19T12:40:50;6.55;;;3.90;;
14294;SDS011;7231;59.370;18.016;2022-08-19T12:43:25;10.27;;;4.00;;
14294;SDS011;7231;59.370;18.016;2022-08-19T12:45:53;13.57;;;4.32;;
14294;SDS011;7231;59.370;18.016;2022-08-19T12:48:23;7.43;;;3.42;;
14294;SDS011;7231;59.370;18.016;2022-08-19T12:51:00;5.75;;;3.40;;
14294;SDS011;7231;59.370;18.016;2022-08-19T12:53:33;6.75;;;3.75;;
14294;SDS011;7231;59.370;18.016;2022-08-19T12:56:05;10.40;;;3.88;;
14294;SDS011;7231;59.370;18.016;2022-08-19T12:58:37;8.75;;;4.13;;
14294;SDS011;7231;59.370;18.016;2022-08-19T13:01:18;9.82;;;4.32;;
14294;SDS011;7231;59.370;18.016;2022-08-19T13:03:50;9.60;;;3.95;;
14294;SDS011;7231;59.370;18.016;2022-08-19T13:06:20;9.18;;;3.83;;
14294;SDS011;7231;59.370;18.016;2022-08-19T13:08:48;8.13;;;3.67;;
14294;SDS011;7231;59.370;18.016;2022-08-19T13:11:19;9.70;;;4.32;;
14294;SDS011;7231;59.370;18.016;2022-08-19T13:13:51;10.65;;;4.13;;
14294;SDS011;7231;59.370;18.016;2022-08-19T13:16:19;5.97;;;3.80;;
14294;SDS011;7231;59.370;18.016;2022-08-19T13:18:49;7.25;;;4.13;;
14294;SDS011;7231;59.370;18.016;2022-08-19T13:21:23;10.50;;;5.00;;
14294;SDS011;7231;59.370;18.016;2022-08-19T13:23:53;11.57;;;4.45;;
14294;SDS011;7231;59.370;18.016;2022-08-19T13:26:22;10.02;;;4.63;;
14294;SDS011;7231;59.370;18.016;2022-08-19T13:28:50;11.98;;;4.47;;
14294;SDS011;7231;59.370;18.016;2022-08-19T13:31:38;11.63;;;4.15;;
14294;SDS011;7231;59.370;18.016;2022-08-19T13:34:30;10.95;;;4.55;;
14294;SDS011;7231;59.370;18.016;2022-08-19T13:37:00;7.60;;;4.30;;
14294;SDS011;7231;59.370;18.016;2022-08-19T13:39:30;10.20;;;4.38;;
14294;SDS011;7231;59.370;18.016;2022-08-19T13:41:59;6.15;;;4.68;;
14294;SDS011;7231;59.370;18.016;2022-08-19T13:44:28;7.15;;;4.45;;
14294;SDS011;7231;59.370;18.016;2022-08-19T13:46:59;6.88;;;4.35;;
14294;SDS011;7231;59.370;18.016;2022-08-19T13:49:35;10.85;;;4.55;;
14294;SDS011;7231;59.370;18.016;2022-08-19T13:52:03;8.98;;;4.45;;
14294;SDS011;7231;59.370;18.016;2022-08-19T13:54:32;5.30;;;4.18;;
14294;SDS011;7231;59.370;18.016;2022-08-19T13:57:01;8.00;;;4.60;;
14294;SDS011;7231;59.370;18.016;2022-08-19T13:59:29;8.00;;;4.15;;
14294;SDS011;7231;59.370;18.016;2022-08-19T14:01:57;8.13;;;4.30;;
14294;SDS011;7231;59.370;18.016;2022-08-19T14:04:26;7.88;;;4.18;;
14294;SDS011;7231;59.370;18.016;2022-08-19T14:06:56;12.80;;;4.72;;
14294;SDS011;7231;59.370;18.016;2022-08-19T14:09:24;8.10;;;4.07;;
14294;SDS011;7231;59.370;18.016;2022-08-19T14:11:52;11.05;;;4.95;;
14294;SDS011;7231;59.370;18.016;2022-08-19T14:14:20;13.30;;;4.20;;
14294;SDS011;7231;59.370;18.016;2022-08-19T14:16:48;12.68;;;4.53;;
14294;SDS011;7231;59.370;18.016;2022-08-19T14:19:18;8.85;;;4.07;;
14294;SDS011;7231;59.370;18.016;2022-08-19T14:21:46;10.32;;;4.72;;
14294;SDS011;7231;59.370;18.016;2022-08-19T14:24:16;9.35;;;5.00;;
14294;SDS011;7231;59.370;18.016;2022-08-19T14:26:44;9.98;;;5.00;;
14294;SDS011;7231;59.370;18.016;2022-08-19T14:29:12;11.30;;;4.60;;
14294;SDS011;7231;59.370;18.016;2022-08-19T14:31:40;12.63;;;4.57;;
14294;SDS011;7231;59.370;18.016;2022-08-19T14:34:10;11.30;;;4.90;;
14294;SDS011;7231;59.370;18.016;2022-08-19T14:36:39;7.80;;;4.70;;
14294;SDS011;7231;59.370;18.016;2022-08-19T14:39:08;9.43;;;5.20;;
14294;SDS011;7231;59.370;18.016;2022-08-19T14:41:39;13.60;;;5.28;;
14294;SDS011;7231;59.370;18.016;2022-08-19T14:44:07;12.35;;;5.22;;
14294;SDS011;7231;59.370;18.016;2022-08-19T14:46:38;11.15;;;4.88;;
14294;SDS011;7231;59.370;18.016;2022-08-19T14:49:14;10.43;;;4.85;;
14294;SDS011;7231;59.370;18.016;2022-08-19T14:51:43;11.27;;;4.75;;
14294;SDS011;7231;59.370;18.016;2022-08-19T14:54:13;10.77;;;5.53;;
14294;SDS011;7231;59.370;18.016;2022-08-19T14:56:42;14.55;;;5.38;;